createdAt,value
2022-08-26T00:00:00.186Z,101200
2022-08-26T00:01:00.338Z,101200
2022-08-26T00:02:00.181Z,101190
2022-08-26T00:03:00.182Z,101190
2022-08-26T00:04:00.230Z,101190
2022-08-26T00:05:00.156Z,101190
2022-08-26T00:06:00.152Z,101190
2022-08-26T00:07:00.330Z,101190
2022-08-26T00:08:00.215Z,101200
2022-08-26T00:09:00.566Z,101200
2022-08-26T00:10:00.157Z,101200
2022-08-26T00:11:00.366Z,101200
2022-08-26T00:12:00.451Z,101200
2022-08-26T00:13:00.166Z,101200
2022-08-26T00:14:00.194Z,101200
2022-08-26T00:15:00.309Z,101200
2022-08-26T00:16:00.413Z,101200
2022-08-26T00:17:00.206Z,101200
2022-08-26T00:18:00.186Z,101200
2022-08-26T00:19:00.161Z,101200
2022-08-26T00:20:00.188Z,101210
2022-08-26T00:21:00.184Z,101210
2022-08-26T00:22:00.306Z,101210
2022-08-26T00:23:00.277Z,101210
2022-08-26T00:24:00.151Z,101210
2022-08-26T00:25:00.155Z,101210
2022-08-26T00:26:00.585Z,101210
2022-08-26T00:27:00.170Z,101210
2022-08-26T00:28:00.201Z,101210
2022-08-26T00:29:00.171Z,101210
2022-08-26T00:30:01.414Z,101210
2022-08-26T00:31:00.169Z,101210
2022-08-26T00:32:00.233Z,101210
2022-08-26T00:33:00.896Z,101210
2022-08-26T00:34:00.155Z,101210
2022-08-26T00:35:00.329Z,101210
2022-08-26T00:36:00.156Z,101210
2022-08-26T00:37:00.180Z,101210
2022-08-26T00:38:00.995Z,101210
2022-08-26T00:39:00.433Z,101210
2022-08-26T00:40:00.811Z,101210
2022-08-26T00:41:00.160Z,101210
2022-08-26T00:42:00.163Z,101210
2022-08-26T00:43:00.539Z,101210
2022-08-26T00:44:00.271Z,101210
2022-08-26T00:45:00.347Z,101210
2022-08-26T00:46:05.834Z,101210
2022-08-26T00:47:02.544Z,101210
2022-08-26T00:48:01.971Z,101210
2022-08-26T00:49:04.761Z,101210
2022-08-26T00:50:01.582Z,101210
2022-08-26T00:51:03.077Z,101210
2022-08-26T00:52:01.826Z,101210
2022-08-26T00:53:02.031Z,101210
2022-08-26T00:54:03.719Z,101210
2022-08-26T00:55:02.460Z,101210
2022-08-26T00:56:00.139Z,101210
2022-08-26T00:57:04.147Z,101210
2022-08-26T00:58:00.893Z,101210
2022-08-26T00:59:06.155Z,101210
2022-08-26T01:00:01.419Z,101210
2022-08-26T01:01:00.404Z,101210
2022-08-26T01:02:02.620Z,101210
2022-08-26T01:03:00.914Z,101210
2022-08-26T01:04:00.627Z,101210
2022-08-26T01:05:01.349Z,101210
2022-08-26T01:06:01.029Z,101220
2022-08-26T01:07:00.997Z,101220
2022-08-26T01:08:00.167Z,101210
2022-08-26T01:09:00.215Z,101210
2022-08-26T01:10:01.892Z,101210
2022-08-26T01:11:01.393Z,101210
2022-08-26T01:12:01.329Z,101210
2022-08-26T01:13:02.869Z,101210
2022-08-26T01:14:01.284Z,101210
2022-08-26T01:15:01.363Z,101210
2022-08-26T01:16:01.973Z,101220
2022-08-26T01:17:00.946Z,101220
2022-08-26T01:18:02.546Z,101210
2022-08-26T01:19:04.838Z,101210
2022-08-26T01:20:05.175Z,101220
2022-08-26T01:21:03.452Z,101220
2022-08-26T01:22:04.265Z,101220
2022-08-26T01:23:03.283Z,101220
2022-08-26T01:24:00.285Z,101210
2022-08-26T01:25:00.835Z,101210
2022-08-26T01:26:03.801Z,101210
2022-08-26T01:27:03.232Z,101210
2022-08-26T01:28:01.621Z,101220
2022-08-26T01:29:01.421Z,101220
2022-08-26T01:30:00.904Z,101220
2022-08-26T01:31:01.289Z,101220
2022-08-26T01:32:01.451Z,101210
2022-08-26T01:33:02.015Z,101210
2022-08-26T01:34:10.105Z,101220
2022-08-26T01:35:00.863Z,101220
2022-08-26T01:36:00.266Z,101220
2022-08-26T01:37:03.674Z,101220
2022-08-26T01:38:00.328Z,101220
2022-08-26T01:39:00.222Z,101220
2022-08-26T01:40:00.304Z,101210
2022-08-26T01:41:00.706Z,101210
2022-08-26T01:42:03.194Z,101210
2022-08-26T01:43:00.704Z,101210
2022-08-26T01:44:01.461Z,101220
2022-08-26T01:45:04.306Z,101220
2022-08-26T01:46:00.693Z,101220
2022-08-26T01:47:00.367Z,101220
2022-08-26T01:48:02.267Z,101220
2022-08-26T01:49:02.628Z,101220
2022-08-26T01:50:01.109Z,101220
2022-08-26T01:51:01.779Z,101220
2022-08-26T01:52:01.451Z,101220
2022-08-26T01:53:02.413Z,101220
2022-08-26T01:54:00.170Z,101220
2022-08-26T01:55:00.704Z,101220
2022-08-26T01:56:01.441Z,101220
2022-08-26T01:57:00.567Z,101220
2022-08-26T01:58:02.485Z,101220
2022-08-26T01:59:02.437Z,101220
2022-08-26T02:00:00.817Z,101220
2022-08-26T02:01:00.418Z,101220
2022-08-26T02:02:00.597Z,101210
2022-08-26T02:03:01.552Z,101210
2022-08-26T02:04:09.011Z,101210
2022-08-26T02:05:02.908Z,101210
2022-08-26T02:06:02.397Z,101210
2022-08-26T02:07:02.023Z,101210
2022-08-26T02:08:01.782Z,101210
2022-08-26T02:09:01.082Z,101210
2022-08-26T02:10:00.209Z,101220
2022-08-26T02:11:00.173Z,101220
2022-08-26T02:12:00.530Z,101220
2022-08-26T02:13:00.243Z,101220
2022-08-26T02:14:02.628Z,101220
2022-08-26T02:15:02.806Z,101220
2022-08-26T02:16:01.375Z,101220
2022-08-26T02:17:00.354Z,101220
2022-08-26T02:18:01.739Z,101220
2022-08-26T02:19:00.750Z,101220
2022-08-26T02:20:01.053Z,101220
2022-08-26T02:21:00.153Z,101220
2022-08-26T02:22:02.610Z,101220
2022-08-26T02:23:00.149Z,101220
2022-08-26T02:24:10.094Z,101220
2022-08-26T02:25:08.799Z,101220
2022-08-26T02:26:10.093Z,101220
2022-08-26T02:27:00.246Z,101220
2022-08-26T02:28:00.263Z,101210
2022-08-26T02:29:02.444Z,101210
2022-08-26T02:30:03.387Z,101210
2022-08-26T02:31:00.162Z,101210
2022-08-26T02:32:00.182Z,101220
2022-08-26T02:33:01.044Z,101220
2022-08-26T02:34:10.842Z,101220
2022-08-26T02:35:00.257Z,101220
2022-08-26T02:36:00.147Z,101220
2022-08-26T02:37:01.871Z,101220
2022-08-26T02:38:00.268Z,101220
2022-08-26T02:39:00.146Z,101220
2022-08-26T02:40:00.478Z,101220
2022-08-26T02:41:00.518Z,101220
2022-08-26T02:42:00.260Z,101220
2022-08-26T02:43:00.308Z,101220
2022-08-26T02:44:00.367Z,101230
2022-08-26T02:45:00.198Z,101230
2022-08-26T02:46:02.176Z,101230
2022-08-26T02:47:00.196Z,101230
2022-08-26T02:48:07.126Z,101230
2022-08-26T02:49:00.299Z,101230
2022-08-26T02:50:00.164Z,101230
2022-08-26T02:51:00.505Z,101230
2022-08-26T02:52:00.154Z,101220
2022-08-26T02:53:00.403Z,101220
2022-08-26T02:54:00.169Z,101230
2022-08-26T02:55:00.195Z,101230
2022-08-26T02:56:00.150Z,101230
2022-08-26T02:57:00.363Z,101230
2022-08-26T02:58:00.154Z,101230
2022-08-26T02:59:00.163Z,101230
2022-08-26T03:00:00.425Z,101230
2022-08-26T03:01:00.308Z,101230
2022-08-26T03:02:00.390Z,101240
2022-08-26T03:03:00.151Z,101240
2022-08-26T03:04:01.471Z,101230
2022-08-26T03:05:02.278Z,101230
2022-08-26T03:06:00.145Z,101230
2022-08-26T03:07:00.170Z,101230
2022-08-26T03:08:00.602Z,101230
2022-08-26T03:09:00.163Z,101230
2022-08-26T03:10:00.280Z,101230
2022-08-26T03:11:01.656Z,101230
2022-08-26T03:12:00.242Z,101230
2022-08-26T03:13:00.155Z,101230
2022-08-26T03:14:01.788Z,101230
2022-08-26T03:15:00.167Z,101230
2022-08-26T03:16:00.515Z,101230
2022-08-26T03:17:00.147Z,101230
2022-08-26T03:18:00.234Z,101230
2022-08-26T03:19:00.662Z,101230
2022-08-26T03:20:00.208Z,101230
2022-08-26T03:21:04.125Z,101230
2022-08-26T03:22:00.584Z,101220
2022-08-26T03:23:00.149Z,101220
2022-08-26T03:24:00.499Z,101230
2022-08-26T03:25:01.047Z,101230
2022-08-26T03:26:00.241Z,101230
2022-08-26T03:27:00.211Z,101230
2022-08-26T03:28:00.177Z,101230
2022-08-26T03:29:00.146Z,101230
2022-08-26T03:30:00.293Z,101230
2022-08-26T03:31:00.204Z,101230
2022-08-26T03:32:00.166Z,101230
2022-08-26T03:33:00.632Z,101230
2022-08-26T03:34:00.156Z,101230
2022-08-26T03:35:00.164Z,101230
2022-08-26T03:36:00.163Z,101230
2022-08-26T03:37:00.163Z,101230
2022-08-26T03:38:00.693Z,101240
2022-08-26T03:39:00.146Z,101240
2022-08-26T03:40:00.324Z,101240
2022-08-26T03:41:00.156Z,101240
2022-08-26T03:42:00.242Z,101230
2022-08-26T03:43:00.445Z,101230
2022-08-26T03:44:01.803Z,101230
2022-08-26T03:45:00.152Z,101230
2022-08-26T03:46:04.056Z,101240
2022-08-26T03:47:00.151Z,101240
2022-08-26T03:48:00.431Z,101240
2022-08-26T03:49:01.161Z,101240
2022-08-26T03:50:00.319Z,101240
2022-08-26T03:51:00.576Z,101240
2022-08-26T03:52:00.531Z,101240
2022-08-26T03:53:00.691Z,101240
2022-08-26T03:54:00.200Z,101240
2022-08-26T03:55:00.209Z,101240
2022-08-26T03:56:00.150Z,101240
2022-08-26T03:57:00.176Z,101240
2022-08-26T03:58:00.639Z,101240
2022-08-26T03:59:00.156Z,101240
2022-08-26T04:00:00.302Z,101240
2022-08-26T04:01:00.160Z,101240
2022-08-26T04:02:00.261Z,101240
2022-08-26T04:03:00.258Z,101240
2022-08-26T04:04:00.839Z,101240
2022-08-26T04:05:00.179Z,101240
2022-08-26T04:06:00.154Z,101240
2022-08-26T04:07:00.301Z,101240
2022-08-26T04:08:00.149Z,101240
2022-08-26T04:09:02.325Z,101240
2022-08-26T04:10:00.297Z,101240
2022-08-26T04:11:00.172Z,101240
2022-08-26T04:12:00.367Z,101230
2022-08-26T04:13:00.157Z,101230
2022-08-26T04:14:01.930Z,101240
2022-08-26T04:15:00.154Z,101240
2022-08-26T04:16:00.252Z,101240
2022-08-26T04:17:00.148Z,101240
2022-08-26T04:18:00.155Z,101230
2022-08-26T04:19:00.209Z,101230
2022-08-26T04:20:00.150Z,101240
2022-08-26T04:21:00.155Z,101240
2022-08-26T04:22:00.167Z,101230
2022-08-26T04:23:00.184Z,101230
2022-08-26T04:24:00.223Z,101230
2022-08-26T04:25:00.174Z,101230
2022-08-26T04:26:00.576Z,101230
2022-08-26T04:27:00.155Z,101230
2022-08-26T04:28:00.193Z,101230
2022-08-26T04:29:00.165Z,101230
2022-08-26T04:30:00.166Z,101230
2022-08-26T04:31:00.293Z,101230
2022-08-26T04:32:00.153Z,101230
2022-08-26T04:33:00.148Z,101230
2022-08-26T04:34:01.000Z,101230
2022-08-26T04:35:00.731Z,101230
2022-08-26T04:36:01.319Z,101230
2022-08-26T04:37:00.553Z,101230
2022-08-26T04:38:00.340Z,101230
2022-08-26T04:39:00.826Z,101230
2022-08-26T04:40:00.352Z,101230
2022-08-26T04:41:00.621Z,101230
2022-08-26T04:42:00.164Z,101230
2022-08-26T04:43:00.156Z,101230
2022-08-26T04:44:00.962Z,101230
2022-08-26T04:45:00.605Z,101230
2022-08-26T04:46:01.753Z,101240
2022-08-26T04:47:00.164Z,101240
2022-08-26T04:48:00.151Z,101250
2022-08-26T04:49:00.140Z,101250
2022-08-26T04:50:00.160Z,101250
2022-08-26T04:51:00.423Z,101250
2022-08-26T04:52:00.146Z,101250
2022-08-26T04:53:00.171Z,101250
2022-08-26T04:54:00.478Z,101250
2022-08-26T04:55:00.165Z,101250
2022-08-26T04:56:00.171Z,101250
2022-08-26T04:57:00.221Z,101250
2022-08-26T04:58:00.149Z,101250
2022-08-26T04:59:00.612Z,101250
2022-08-26T05:00:00.190Z,101250
2022-08-26T05:01:00.590Z,101250
2022-08-26T05:02:00.210Z,101250
2022-08-26T05:03:00.142Z,101250
2022-08-26T05:04:00.546Z,101250
2022-08-26T05:05:00.236Z,101250
2022-08-26T05:06:02.513Z,101250
2022-08-26T05:07:02.655Z,101250
2022-08-26T05:08:00.141Z,101250
2022-08-26T05:09:00.223Z,101250
2022-08-26T05:10:00.953Z,101260
2022-08-26T05:11:02.739Z,101260
2022-08-26T05:12:00.165Z,101260
2022-08-26T05:13:00.183Z,101260
2022-08-26T05:14:02.299Z,101260
2022-08-26T05:15:00.153Z,101260
2022-08-26T05:16:02.541Z,101260
2022-08-26T05:17:00.216Z,101260
2022-08-26T05:18:01.394Z,101260
2022-08-26T05:19:00.164Z,101260
2022-08-26T05:20:00.315Z,101260
2022-08-26T05:21:00.548Z,101260
2022-08-26T05:22:00.159Z,101260
2022-08-26T05:23:00.162Z,101260
2022-08-26T05:24:00.161Z,101260
2022-08-26T05:25:00.221Z,101260
2022-08-26T05:26:00.573Z,101260
2022-08-26T05:27:00.166Z,101260
2022-08-26T05:28:00.151Z,101260
2022-08-26T05:29:00.153Z,101260
2022-08-26T05:30:00.200Z,101260
2022-08-26T05:31:00.680Z,101260
2022-08-26T05:32:00.334Z,101260
2022-08-26T05:33:00.367Z,101260
2022-08-26T05:34:00.660Z,101250
2022-08-26T05:35:00.176Z,101250
2022-08-26T05:36:04.865Z,101260
2022-08-26T05:37:00.151Z,101260
2022-08-26T05:38:00.840Z,101260
2022-08-26T05:39:01.085Z,101260
2022-08-26T05:40:01.339Z,101260
2022-08-26T05:41:00.150Z,101260
2022-08-26T05:42:00.177Z,101260
2022-08-26T05:43:00.166Z,101260
2022-08-26T05:44:00.759Z,101270
2022-08-26T05:45:00.148Z,101270
2022-08-26T05:46:05.743Z,101270
2022-08-26T05:47:00.150Z,101270
2022-08-26T05:48:00.145Z,101270
2022-08-26T05:49:00.497Z,101270
2022-08-26T05:50:00.180Z,101280
2022-08-26T05:51:01.928Z,101280
2022-08-26T05:52:00.154Z,101270
2022-08-26T05:53:00.150Z,101270
2022-08-26T05:54:00.774Z,101270
2022-08-26T05:55:00.151Z,101270
2022-08-26T05:56:01.363Z,101270
2022-08-26T05:57:00.145Z,101270
2022-08-26T05:58:00.348Z,101270
2022-08-26T05:59:00.792Z,101270
2022-08-26T06:00:00.162Z,101280
2022-08-26T06:01:01.830Z,101280
2022-08-26T06:02:00.747Z,101280
2022-08-26T06:03:00.263Z,101280
2022-08-26T06:04:01.679Z,101280
2022-08-26T06:05:00.192Z,101280
2022-08-26T06:06:09.637Z,101280
2022-08-26T06:07:00.152Z,101280
2022-08-26T06:08:00.151Z,101280
2022-08-26T06:09:01.554Z,101280
2022-08-26T06:10:28.247Z,101280
2022-08-26T06:11:01.987Z,101280
2022-08-26T06:12:00.167Z,101290
2022-08-26T06:13:04.622Z,101290
2022-08-26T06:14:03.788Z,101290
2022-08-26T06:15:00.159Z,101290
2022-08-26T06:16:02.096Z,101290
2022-08-26T06:17:00.207Z,101290
2022-08-26T06:18:00.149Z,101300
2022-08-26T06:19:00.776Z,101300
2022-08-26T06:20:00.211Z,101300
2022-08-26T06:21:00.957Z,101300
2022-08-26T06:22:00.279Z,101300
2022-08-26T06:23:00.137Z,101300
2022-08-26T06:24:03.054Z,101300
2022-08-26T06:25:00.147Z,101300
2022-08-26T06:26:00.315Z,101300
2022-08-26T06:27:02.024Z,101300
2022-08-26T06:28:00.160Z,101300
2022-08-26T06:29:00.539Z,101300
2022-08-26T06:30:00.175Z,101310
2022-08-26T06:31:01.007Z,101310
2022-08-26T06:32:01.053Z,101310
2022-08-26T06:33:00.147Z,101310
2022-08-26T06:34:00.647Z,101310
2022-08-26T06:35:00.152Z,101310
2022-08-26T06:36:00.147Z,101310
2022-08-26T06:37:01.377Z,101310
2022-08-26T06:38:00.150Z,101310
2022-08-26T06:39:02.095Z,101310
2022-08-26T06:40:00.322Z,101310
2022-08-26T06:41:00.151Z,101310
2022-08-26T06:42:00.453Z,101310
2022-08-26T06:43:00.147Z,101310
2022-08-26T06:44:00.595Z,101310
2022-08-26T06:45:00.141Z,101310
2022-08-26T06:46:01.579Z,101310
2022-08-26T06:47:00.161Z,101310
2022-08-26T06:48:00.150Z,101320
2022-08-26T06:49:00.229Z,101320
2022-08-26T06:50:00.152Z,101320
2022-08-26T06:51:01.902Z,101320
2022-08-26T06:52:00.199Z,101310
2022-08-26T06:53:00.181Z,101310
2022-08-26T06:54:00.823Z,101330
2022-08-26T06:55:00.149Z,101330
2022-08-26T06:56:01.949Z,101320
2022-08-26T06:57:00.175Z,101320
2022-08-26T06:58:00.152Z,101330
2022-08-26T06:59:00.529Z,101330
2022-08-26T07:00:00.192Z,101330
2022-08-26T07:01:03.696Z,101330
2022-08-26T07:02:00.295Z,101330
2022-08-26T07:03:00.205Z,101330
2022-08-26T07:04:01.593Z,101320
2022-08-26T07:05:00.149Z,101320
2022-08-26T07:06:01.130Z,101320
2022-08-26T07:07:00.145Z,101320
2022-08-26T07:08:00.171Z,101320
2022-08-26T07:09:01.977Z,101320
2022-08-26T07:10:00.154Z,101320
2022-08-26T07:11:04.660Z,101320
2022-08-26T07:12:00.158Z,101320
2022-08-26T07:13:00.138Z,101320
2022-08-26T07:14:00.440Z,101320
2022-08-26T07:15:00.236Z,101320
2022-08-26T07:16:02.877Z,101320
2022-08-26T07:17:00.157Z,101320
2022-08-26T07:18:00.563Z,101320
2022-08-26T07:19:01.192Z,101320
2022-08-26T07:20:00.243Z,101320
2022-08-26T07:21:01.221Z,101320
2022-08-26T07:22:01.017Z,101330
2022-08-26T07:23:00.148Z,101330
2022-08-26T07:24:00.648Z,101330
2022-08-26T07:25:00.175Z,101330
2022-08-26T07:26:04.688Z,101330
2022-08-26T07:27:01.068Z,101330
2022-08-26T07:28:00.158Z,101330
2022-08-26T07:29:00.232Z,101330
2022-08-26T07:30:00.560Z,101330
2022-08-26T07:31:04.634Z,101330
2022-08-26T07:32:00.438Z,101340
2022-08-26T07:33:00.150Z,101340
2022-08-26T07:34:00.171Z,101340
2022-08-26T07:35:00.153Z,101340
2022-08-26T07:36:00.346Z,101340
2022-08-26T07:37:00.156Z,101340
2022-08-26T07:38:00.235Z,101340
2022-08-26T07:39:00.327Z,101340
2022-08-26T07:40:00.304Z,101340
2022-08-26T07:41:00.569Z,101340
2022-08-26T07:42:00.772Z,101340
2022-08-26T07:43:00.164Z,101340
2022-08-26T07:44:00.170Z,101340
2022-08-26T07:45:00.377Z,101340
2022-08-26T07:46:00.637Z,101340
2022-08-26T07:47:00.311Z,101340
2022-08-26T07:48:00.153Z,101350
2022-08-26T07:49:00.239Z,101350
2022-08-26T07:50:00.185Z,101350
2022-08-26T07:51:00.285Z,101350
2022-08-26T07:52:00.525Z,101350
2022-08-26T07:53:00.795Z,101350
2022-08-26T07:54:00.318Z,101350
2022-08-26T07:55:00.764Z,101350
2022-08-26T07:56:00.168Z,101350
2022-08-26T07:57:00.174Z,101350
2022-08-26T07:58:00.351Z,101350
2022-08-26T07:59:00.185Z,101350
2022-08-26T08:00:00.724Z,101350
2022-08-26T08:01:00.213Z,101350
2022-08-26T08:02:00.282Z,101350
2022-08-26T08:03:00.650Z,101350
2022-08-26T08:04:00.160Z,101350
2022-08-26T08:05:00.252Z,101350
2022-08-26T08:06:00.158Z,101350
2022-08-26T08:07:00.164Z,101350
2022-08-26T08:08:26.602Z,101360
2022-08-26T08:09:00.168Z,101360
2022-08-26T08:10:00.171Z,101360
2022-08-26T08:11:00.369Z,101360
2022-08-26T08:12:00.236Z,101350
2022-08-26T08:13:00.155Z,101350
2022-08-26T08:14:00.288Z,101360
2022-08-26T08:15:00.152Z,101360
2022-08-26T08:16:00.170Z,101360
2022-08-26T08:17:00.339Z,101360
2022-08-26T08:18:01.005Z,101360
2022-08-26T08:19:00.249Z,101360
2022-08-26T08:20:00.186Z,101370
2022-08-26T08:21:21.432Z,101370
2022-08-26T08:22:00.155Z,101360
2022-08-26T08:23:00.980Z,101360
2022-08-26T08:24:00.169Z,101360
2022-08-26T08:25:00.168Z,101360
2022-08-26T08:26:01.140Z,101360
2022-08-26T08:27:00.823Z,101360
2022-08-26T08:28:00.173Z,101360
2022-08-26T08:29:00.157Z,101360
2022-08-26T08:30:00.266Z,101370
2022-08-26T08:31:00.240Z,101370
2022-08-26T08:32:00.218Z,101370
2022-08-26T08:33:00.145Z,101370
2022-08-26T08:34:00.166Z,101370
2022-08-26T08:35:00.920Z,101370
2022-08-26T08:36:00.555Z,101370
2022-08-26T08:37:00.174Z,101370
2022-08-26T08:38:00.155Z,101370
2022-08-26T08:39:00.164Z,101370
2022-08-26T08:40:00.317Z,101370
2022-08-26T08:41:00.801Z,101370
2022-08-26T08:42:10.090Z,101370
2022-08-26T08:43:03.120Z,101370
2022-08-26T08:44:00.568Z,101380
2022-08-26T08:45:04.407Z,101380
2022-08-26T08:46:04.469Z,101370
2022-08-26T08:47:03.406Z,101370
2022-08-26T08:48:03.123Z,101380
2022-08-26T08:49:00.209Z,101380
2022-08-26T08:50:06.010Z,101370
2022-08-26T08:51:05.226Z,101370
2022-08-26T08:52:05.666Z,101370
2022-08-26T08:53:03.206Z,101370
2022-08-26T08:54:00.822Z,101370
2022-08-26T08:55:00.915Z,101370
2022-08-26T08:56:10.092Z,101370
2022-08-26T08:57:00.136Z,101370
2022-08-26T08:58:07.956Z,101380
2022-08-26T08:59:10.095Z,101370
2022-08-26T09:00:04.377Z,101370
2022-08-26T09:01:03.377Z,101370
2022-08-26T09:02:03.475Z,101370
2022-08-26T09:03:06.497Z,101370
2022-08-26T09:04:00.127Z,101370
2022-08-26T09:05:10.104Z,101370
2022-08-26T09:06:00.458Z,101370
2022-08-26T09:07:01.293Z,101370
2022-08-26T09:08:03.653Z,101370
2022-08-26T09:09:01.684Z,101370
2022-08-26T09:10:02.803Z,101370
2022-08-26T09:11:01.083Z,101370
2022-08-26T09:12:01.121Z,101380
2022-08-26T09:13:01.184Z,101380
2022-08-26T09:14:00.345Z,101380
2022-08-26T09:15:03.880Z,101380
2022-08-26T09:16:10.299Z,101380
2022-08-26T09:17:10.185Z,101380
2022-08-26T09:18:10.279Z,101380
2022-08-26T09:19:10.094Z,101380
2022-08-26T09:20:06.015Z,101380
2022-08-26T09:21:02.880Z,101380
2022-08-26T09:22:00.182Z,101380
2022-08-26T09:23:00.434Z,101380
2022-08-26T09:24:00.176Z,101380
2022-08-26T09:25:01.319Z,101380
2022-08-26T09:26:01.300Z,101380
2022-08-26T09:27:00.374Z,101380
2022-08-26T09:28:00.162Z,101380
2022-08-26T09:29:01.444Z,101380
2022-08-26T09:30:00.158Z,101380
2022-08-26T09:31:11.471Z,101380
2022-08-26T09:32:10.093Z,101380
2022-08-26T09:33:03.027Z,101380
2022-08-26T09:34:04.779Z,101380
2022-08-26T09:35:04.009Z,101380
2022-08-26T09:36:10.095Z,101380
2022-08-26T09:37:00.154Z,101380
2022-08-26T09:38:00.455Z,101390
2022-08-26T09:39:00.165Z,101390
2022-08-26T09:40:10.137Z,101390
2022-08-26T09:41:02.800Z,101390
2022-08-26T09:42:00.135Z,101390
2022-08-26T09:43:05.308Z,101390
2022-08-26T09:44:03.385Z,101390
2022-08-26T09:45:02.150Z,101390
2022-08-26T09:46:10.127Z,101390
2022-08-26T09:47:01.574Z,101390
2022-08-26T09:48:01.377Z,101390
2022-08-26T09:49:10.088Z,101390
2022-08-26T09:50:00.153Z,101390
2022-08-26T09:51:01.381Z,101390
2022-08-26T09:52:03.541Z,101390
2022-08-26T09:53:03.385Z,101390
2022-08-26T09:54:01.175Z,101390
2022-08-26T09:55:03.341Z,101390
2022-08-26T09:56:10.088Z,101390
2022-08-26T09:57:10.085Z,101390
2022-08-26T09:58:08.002Z,101390
2022-08-26T09:59:00.514Z,101390
2022-08-26T10:00:00.465Z,101390
2022-08-26T10:01:01.672Z,101390
2022-08-26T10:02:12.101Z,101390
2022-08-26T10:03:01.927Z,101390
2022-08-26T10:04:05.123Z,101390
2022-08-26T10:05:09.213Z,101390
2022-08-26T10:06:03.341Z,101400
2022-08-26T10:07:01.623Z,101400
2022-08-26T10:08:10.091Z,101400
2022-08-26T10:09:02.746Z,101400
2022-08-26T10:10:01.580Z,101400
2022-08-26T10:11:04.280Z,101400
2022-08-26T10:12:03.398Z,101390
2022-08-26T10:13:03.786Z,101390
2022-08-26T10:14:03.527Z,101400
2022-08-26T10:15:03.173Z,101400
2022-08-26T10:16:01.140Z,101400
2022-08-26T10:17:06.983Z,101400
2022-08-26T10:18:05.875Z,101390
2022-08-26T10:19:04.886Z,101390
2022-08-26T10:20:23.152Z,101390
2022-08-26T10:21:02.817Z,101390
2022-08-26T10:22:04.339Z,101390
2022-08-26T10:23:04.852Z,101390
2022-08-26T10:24:01.358Z,101390
2022-08-26T10:25:02.655Z,101390
2022-08-26T10:26:07.535Z,101390
2022-08-26T10:27:04.927Z,101390
2022-08-26T10:28:06.956Z,101390
2022-08-26T10:29:07.268Z,101390
2022-08-26T10:30:04.129Z,101390
2022-08-26T10:31:03.617Z,101390
2022-08-26T10:32:03.733Z,101400
2022-08-26T10:33:03.653Z,101400
2022-08-26T10:34:00.804Z,101390
2022-08-26T10:35:00.820Z,101390
2022-08-26T10:36:04.800Z,101400
2022-08-26T10:37:13.788Z,101400
2022-08-26T10:38:06.390Z,101400
2022-08-26T10:39:03.166Z,101400
2022-08-26T10:40:01.191Z,101400
2022-08-26T10:41:03.478Z,101400
2022-08-26T10:42:03.172Z,101400
2022-08-26T10:43:07.080Z,101400
2022-08-26T10:44:01.878Z,101390
2022-08-26T10:45:11.928Z,101390
2022-08-26T10:46:03.100Z,101390
2022-08-26T10:47:02.512Z,101390
2022-08-26T10:48:03.776Z,101400
2022-08-26T10:49:04.712Z,101400
2022-08-26T10:50:03.407Z,101400
2022-08-26T10:51:00.341Z,101400
2022-08-26T10:52:12.318Z,101390
2022-08-26T10:53:04.330Z,101390
2022-08-26T10:54:04.257Z,101390
2022-08-26T10:55:06.259Z,101390
2022-08-26T10:56:18.547Z,101400
2022-08-26T10:57:09.598Z,101400
2022-08-26T10:58:08.956Z,101390
2022-08-26T10:59:01.141Z,101390
2022-08-26T11:00:04.256Z,101390
2022-08-26T11:01:10.500Z,101390
2022-08-26T11:02:06.632Z,101390
2022-08-26T11:03:21.898Z,101390
2022-08-26T11:04:01.288Z,101390
2022-08-26T11:05:03.365Z,101390
2022-08-26T11:06:10.090Z,101390
2022-08-26T11:07:10.091Z,101400
2022-08-26T11:08:10.245Z,101400
2022-08-26T11:09:02.797Z,101400
2022-08-26T11:10:03.023Z,101400
2022-08-26T11:11:00.172Z,101400
2022-08-26T11:12:03.907Z,101400
2022-08-26T11:13:02.307Z,101400
2022-08-26T11:14:03.610Z,101400
2022-08-26T11:15:02.237Z,101400
2022-08-26T11:16:01.305Z,101400
2022-08-26T11:17:00.377Z,101400
2022-08-26T11:18:01.662Z,101400
2022-08-26T11:19:00.255Z,101400
2022-08-26T11:20:02.214Z,101390
2022-08-26T11:21:00.155Z,101390
2022-08-26T11:22:02.284Z,101390
2022-08-26T11:23:10.097Z,101390
2022-08-26T11:24:00.147Z,101390
2022-08-26T11:25:02.818Z,101390
2022-08-26T11:26:07.582Z,101390
2022-08-26T11:27:00.157Z,101390
2022-08-26T11:28:00.581Z,101390
2022-08-26T11:29:00.179Z,101390
2022-08-26T11:30:10.151Z,101390
2022-08-26T11:31:00.287Z,101390
2022-08-26T11:32:00.281Z,101390
2022-08-26T11:33:00.179Z,101390
2022-08-26T11:34:01.293Z,101390
2022-08-26T11:35:01.395Z,101390
2022-08-26T11:36:00.173Z,101390
2022-08-26T11:37:01.728Z,101390
2022-08-26T11:38:01.552Z,101390
2022-08-26T11:39:01.036Z,101390
2022-08-26T11:40:01.186Z,101390
2022-08-26T11:41:04.521Z,101390
2022-08-26T11:42:10.092Z,101390
2022-08-26T11:43:10.090Z,101390
2022-08-26T11:44:00.165Z,101390
2022-08-26T11:45:05.716Z,101390
2022-08-26T11:46:02.754Z,101390
2022-08-26T11:47:00.387Z,101390
2022-08-26T11:48:10.163Z,101390
2022-08-26T11:49:01.981Z,101390
2022-08-26T11:50:07.790Z,101390
2022-08-26T11:51:03.245Z,101390
2022-08-26T11:52:10.088Z,101390
2022-08-26T11:53:01.149Z,101390
2022-08-26T11:54:10.087Z,101390
2022-08-26T11:55:01.799Z,101390
2022-08-26T11:56:03.017Z,101390
2022-08-26T11:57:04.777Z,101390
2022-08-26T11:58:01.560Z,101390
2022-08-26T11:59:01.856Z,101390
2022-08-26T12:00:00.776Z,101400
2022-08-26T12:01:01.746Z,101400
2022-08-26T12:02:00.224Z,101400
2022-08-26T12:03:03.745Z,101400
2022-08-26T12:04:01.808Z,101400
2022-08-26T12:05:00.642Z,101400
2022-08-26T12:06:00.406Z,101390
2022-08-26T12:07:00.882Z,101390
2022-08-26T12:08:04.679Z,101390
2022-08-26T12:09:01.478Z,101390
2022-08-26T12:10:02.303Z,101390
2022-08-26T12:11:01.264Z,101390
2022-08-26T12:12:10.087Z,101390
2022-08-26T12:13:00.872Z,101390
2022-08-26T12:14:04.895Z,101380
2022-08-26T12:15:04.730Z,101380
2022-08-26T12:16:00.193Z,101380
2022-08-26T12:17:09.769Z,101380
2022-08-26T12:18:10.276Z,101380
2022-08-26T12:19:00.176Z,101380
2022-08-26T12:20:00.271Z,101380
2022-08-26T12:21:08.520Z,101380
2022-08-26T12:22:03.252Z,101380
2022-08-26T12:23:00.388Z,101380
2022-08-26T12:24:00.310Z,101380
2022-08-26T12:25:01.719Z,101380
2022-08-26T12:26:03.569Z,101380
2022-08-26T12:27:10.087Z,101390
2022-08-26T12:28:02.663Z,101390